createdAt,value
2018-09-26T04:58:21.974Z,8.90
2018-09-26T05:09:07.512Z,8.40
2018-09-26T05:40:24.389Z,8.50
2018-09-26T05:45:46.524Z,8.40
2018-09-26T05:51:14.324Z,8.40
2018-09-26T05:56:39.980Z,8.40
2018-09-26T06:02:01.066Z,8.40
2018-09-26T06:07:30.178Z,8.40
2018-09-26T06:13:08.509Z,8.50
2018-09-26T06:18:29.528Z,8.60
2018-09-26T06:29:12.130Z,8.70
2018-09-26T06:34:42.925Z,8.90
2018-09-26T06:45:50.408Z,9.20
2018-09-26T06:51:12.810Z,9.30
2018-09-26T06:56:23.547Z,9.50
2018-09-26T07:01:35.683Z,9.60
2018-09-26T07:06:44.154Z,9.80
2018-09-26T07:11:51.380Z,10.00
2018-09-26T07:16:56.624Z,10.20
2018-09-26T07:22:01.002Z,10.40
2018-09-26T07:27:07.827Z,10.60
2018-09-26T07:32:12.354Z,10.80
2018-09-26T07:37:17.106Z,11.10
2018-09-26T07:42:15.532Z,11.10
2018-09-26T07:47:22.435Z,11.20
2018-09-26T07:52:20.545Z,11.30
2018-09-26T07:57:21.675Z,11.50
2018-09-26T08:02:19.945Z,11.70
2018-09-26T08:07:23.609Z,11.70
2018-09-26T08:12:21.502Z,11.90
2018-09-26T08:17:18.803Z,12.10
2018-09-26T08:22:17.597Z,12.30
2018-09-26T08:27:15.878Z,12.40
2018-09-26T08:32:07.942Z,12.60
2018-09-26T08:37:00.001Z,12.90
2018-09-26T08:41:54.196Z,13.20
2018-09-26T08:46:47.794Z,13.60
2018-09-26T08:51:41.443Z,13.80
2018-09-26T08:56:35.077Z,13.90
2018-09-26T09:01:28.148Z,13.90
2018-09-26T09:06:27.542Z,13.70
2018-09-26T09:11:18.325Z,13.60
2018-09-26T09:16:09.845Z,13.50
2018-09-26T09:21:09.428Z,13.40
2018-09-26T09:26:08.122Z,13.30
2018-09-26T09:31:00.544Z,13.40
2018-09-26T09:35:54.364Z,13.60
2018-09-26T09:40:46.058Z,14.30
2018-09-26T09:45:40.697Z,14.80
2018-09-26T09:50:32.814Z,15.50
2018-09-26T09:55:27.434Z,16.00
2018-09-26T10:00:22.100Z,16.10
2018-09-26T10:05:13.148Z,16.40
2018-09-26T10:10:07.003Z,16.40
2018-09-26T10:14:59.416Z,16.30
2018-09-26T10:19:51.546Z,16.30
2018-09-26T10:24:43.161Z,16.60
2018-09-26T10:29:45.135Z,16.80
2018-09-26T10:34:35.634Z,16.90
2018-09-26T10:39:27.534Z,16.90
2018-09-26T10:44:21.422Z,16.70
2018-09-26T10:49:14.397Z,16.30
2018-09-26T10:54:06.290Z,16.00
2018-09-26T10:58:57.409Z,15.90
2018-09-26T11:03:51.337Z,16.10
2018-09-26T11:08:45.512Z,16.10
2018-09-26T11:13:36.587Z,16.10
2018-09-26T11:18:31.845Z,16.30
2018-09-26T11:23:25.770Z,16.90
2018-09-26T11:28:18.134Z,17.20
2018-09-26T11:33:10.386Z,17.70
2018-09-26T11:38:02.737Z,18.10
2018-09-26T11:42:54.367Z,18.50
2018-09-26T11:47:45.585Z,18.50
2018-09-26T11:52:38.134Z,18.80
2018-09-26T11:57:30.515Z,18.90
2018-09-26T12:02:23.261Z,19.60
2018-09-26T12:07:17.015Z,20.10
2018-09-26T12:12:09.000Z,20.20
2018-09-26T12:17:00.516Z,20.40
2018-09-26T12:21:56.009Z,20.40
2018-09-26T12:26:51.510Z,20.90
2018-09-26T12:31:43.202Z,21.10
2018-09-26T12:36:37.040Z,21.40
2018-09-26T12:41:38.628Z,21.30
2018-09-26T12:46:28.015Z,21.20
2018-09-26T12:51:19.678Z,21.30
2018-09-26T12:56:12.573Z,21.10
2018-09-26T13:01:06.446Z,20.90
2018-09-26T13:06:03.885Z,21.00
2018-09-26T13:11:07.681Z,21.50
2018-09-26T13:16:01.033Z,21.20
2018-09-26T13:20:52.256Z,20.80
2018-09-26T13:25:44.202Z,20.80
2018-09-26T13:30:38.492Z,20.60
2018-09-26T13:35:35.005Z,20.50
2018-09-26T13:40:28.316Z,20.50
2018-09-26T13:45:19.380Z,20.50
2018-09-26T13:50:11.603Z,20.30
2018-09-26T13:51:12.319Z,20.50
2018-09-26T13:51:24.636Z,20.50
2018-09-26T13:54:14.292Z,20.70
2018-09-26T13:59:07.460Z,20.70
2018-09-26T14:04:00.820Z,20.80
2018-09-26T14:08:52.526Z,20.70
2018-09-26T14:13:54.808Z,20.90
2018-09-26T14:18:47.455Z,21.20
2018-09-26T14:23:41.493Z,21.00
2018-09-26T14:28:35.705Z,21.00
2018-09-26T14:33:35.266Z,21.10
2018-09-26T14:38:25.767Z,20.80
2018-09-26T14:43:17.188Z,20.30
2018-09-26T14:48:18.448Z,20.00
2018-09-26T14:53:08.164Z,19.70
2018-09-26T14:58:01.193Z,19.60
2018-09-26T15:02:52.537Z,19.40
2018-09-26T15:07:45.970Z,19.30
2018-09-26T15:12:36.851Z,19.30
2018-09-26T15:17:30.690Z,19.20
2018-09-26T15:22:22.174Z,19.30
2018-09-26T15:27:13.678Z,19.30
2018-09-26T15:32:07.603Z,19.30
2018-09-26T15:36:58.897Z,19.10
2018-09-26T15:41:50.535Z,18.90
2018-09-26T15:46:42.268Z,18.80
2018-09-26T15:51:34.340Z,18.80
2018-09-26T15:56:26.596Z,19.00
2018-09-26T16:01:18.258Z,19.00
2018-09-26T16:06:10.535Z,19.10
2018-09-26T16:11:02.762Z,19.10
2018-09-26T16:15:54.697Z,18.90
2018-09-26T16:20:46.445Z,18.80
2018-09-26T16:25:38.802Z,18.90
2018-09-26T16:30:29.944Z,18.90
2018-09-26T16:35:21.429Z,18.80
2018-09-26T16:40:12.973Z,18.70
2018-09-26T16:45:04.769Z,18.50
2018-09-26T16:49:56.395Z,18.40
2018-09-26T16:54:48.018Z,18.20
2018-09-26T16:59:39.904Z,18.00
2018-09-26T17:04:31.609Z,17.90
2018-09-26T17:09:23.239Z,17.80
2018-09-26T17:14:18.342Z,17.50
2018-09-26T17:19:09.999Z,17.30
2018-09-26T17:24:02.226Z,17.00
2018-09-26T17:28:55.797Z,16.90
2018-09-26T17:31:25.644Z,16.50
2018-09-26T17:36:20.572Z,16.50
2018-09-26T17:41:11.481Z,16.30
2018-09-26T17:46:03.475Z,16.10
2018-09-26T17:50:55.098Z,15.80
2018-09-26T17:55:49.752Z,15.60
2018-09-26T18:00:40.691Z,15.40
2018-09-26T18:05:34.405Z,15.10
2018-09-26T18:10:28.665Z,14.90
2018-09-26T18:15:20.455Z,14.80
2018-09-26T18:20:16.173Z,14.70
2018-09-26T18:25:06.215Z,14.60
2018-09-26T18:30:00.984Z,14.40
2018-09-26T18:34:54.956Z,14.30
2018-09-26T18:39:47.677Z,14.20
2018-09-26T18:44:40.695Z,14.10
2018-09-26T18:49:34.046Z,14.00
2018-09-26T18:54:33.503Z,13.80
2018-09-26T18:59:25.928Z,13.70
2018-09-26T19:04:22.313Z,13.60
2018-09-26T19:09:18.960Z,13.40
2018-09-26T19:14:14.539Z,13.30
2018-09-26T19:19:11.350Z,13.20
2018-09-26T19:24:09.169Z,13.10
2018-09-26T19:29:09.798Z,13.00
2018-09-26T19:34:08.291Z,12.90
2018-09-26T19:39:05.500Z,12.90
2018-09-26T19:44:03.555Z,12.90
2018-09-26T19:49:04.456Z,12.70
2018-09-26T19:54:00.322Z,12.60
2018-09-26T19:59:02.316Z,12.60
2018-09-26T20:04:06.739Z,12.60
2018-09-26T20:09:01.002Z,12.60
2018-09-26T20:13:59.856Z,12.50
2018-09-26T20:19:01.968Z,12.40
2018-09-26T20:24:00.317Z,12.40
2018-09-26T20:29:00.149Z,12.20
2018-09-26T20:34:00.716Z,12.10
2018-09-26T20:39:01.707Z,12.00
2018-09-26T20:44:02.532Z,12.00
2018-09-26T20:49:06.243Z,11.90
2018-09-26T20:54:04.744Z,11.80
2018-09-26T20:59:08.740Z,11.80
2018-09-26T21:04:09.076Z,11.80
2018-09-26T21:09:09.948Z,11.90
2018-09-26T21:14:10.775Z,11.90
2018-09-26T21:19:11.676Z,11.90
2018-09-26T21:24:12.542Z,11.70
2018-09-26T21:29:16.456Z,11.70
2018-09-26T21:34:19.689Z,11.70
2018-09-26T21:39:23.913Z,11.60
2018-09-26T21:44:30.624Z,11.50
2018-09-26T21:49:33.438Z,11.50
2018-09-26T21:54:40.107Z,11.30
2018-09-26T21:59:49.626Z,11.20
2018-09-26T22:04:52.449Z,11.20
2018-09-26T22:10:00.067Z,11.10
2018-09-26T22:15:06.200Z,11.10
2018-09-26T22:20:13.307Z,11.00
2018-09-26T22:25:22.390Z,11.00
2018-09-26T22:30:31.273Z,10.90
2018-09-26T22:35:37.241Z,10.90
2018-09-26T22:40:46.527Z,10.90
2018-09-26T22:45:53.336Z,10.80
2018-09-26T22:51:01.196Z,10.80
2018-09-26T22:56:09.218Z,10.70
2018-09-26T23:01:18.333Z,10.60
2018-09-26T23:06:30.560Z,10.60
2018-09-26T23:11:38.890Z,10.50
2018-09-26T23:16:53.555Z,10.50
2018-09-26T23:22:01.640Z,10.60
2018-09-26T23:27:13.592Z,10.50
2018-09-26T23:32:22.236Z,10.50
2018-09-26T23:37:31.273Z,10.60
2018-09-26T23:42:46.192Z,10.60
2018-09-26T23:47:59.444Z,10.50
2018-09-26T23:53:13.857Z,10.50
2018-09-26T23:58:21.738Z,10.40
